createdAt,value
2018-09-11T00:00:06.292Z,72.81
2018-09-11T00:01:06.763Z,73.16
2018-09-11T00:02:07.237Z,73.47
2018-09-11T00:03:07.705Z,74.55
2018-09-11T00:04:08.173Z,75.91
2018-09-11T00:05:08.644Z,77.19
2018-09-11T00:06:09.115Z,75.23
2018-09-11T00:07:09.588Z,76.56
2018-09-11T00:08:10.057Z,76.73
2018-09-11T00:09:10.527Z,73.25
2018-09-11T00:10:11.000Z,73.33
2018-09-11T00:11:11.471Z,73.46
2018-09-11T00:12:11.940Z,73.85
2018-09-11T00:13:12.412Z,73.90
2018-09-11T00:14:12.885Z,72.28
2018-09-11T00:15:13.359Z,71.80
2018-09-11T00:16:13.828Z,73.08
2018-09-11T00:17:14.303Z,73.80
2018-09-11T00:18:14.772Z,73.72
2018-09-11T00:19:15.244Z,74.52
2018-09-11T00:20:15.720Z,74.12
2018-09-11T00:21:16.191Z,73.03
2018-09-11T00:22:16.667Z,71.97
2018-09-11T00:23:17.136Z,71.39
2018-09-11T00:24:17.611Z,71.19
2018-09-11T00:25:18.083Z,72.75
2018-09-11T00:26:18.558Z,72.34
2018-09-11T00:27:19.031Z,71.91
2018-09-11T00:28:19.506Z,70.55
2018-09-11T00:29:19.980Z,68.02
2018-09-11T00:30:20.453Z,68.69
2018-09-11T00:31:20.929Z,67.93
2018-09-11T00:32:21.399Z,69.73
2018-09-11T00:33:21.875Z,68.63
2018-09-11T00:34:22.349Z,67.66
2018-09-11T00:35:22.823Z,68.03
2018-09-11T00:36:23.297Z,66.60
2018-09-11T00:37:23.770Z,66.47
2018-09-11T00:38:24.244Z,68.48
2018-09-11T00:39:24.718Z,67.50
2018-09-11T00:40:25.191Z,66.70
2018-09-11T00:41:25.665Z,67.72
2018-09-11T00:42:26.139Z,67.87
2018-09-11T00:43:26.611Z,66.06
2018-09-11T00:44:27.085Z,66.28
2018-09-11T00:45:27.559Z,66.10
2018-09-11T00:46:28.029Z,67.19
2018-09-11T00:47:28.504Z,65.66
2018-09-11T00:48:28.975Z,65.93
2018-09-11T00:49:29.447Z,65.88
2018-09-11T00:50:29.921Z,64.15
2018-09-11T00:51:30.392Z,64.86
2018-09-11T00:52:30.863Z,64.69
2018-09-11T00:53:31.335Z,64.23
2018-09-11T00:54:31.807Z,64.07
2018-09-11T00:55:32.278Z,64.18
2018-09-11T00:56:32.752Z,63.99
2018-09-11T00:57:33.221Z,64.32
2018-09-11T00:58:33.691Z,64.65
2018-09-11T00:59:34.160Z,65.30
2018-09-11T01:00:34.633Z,65.54
2018-09-11T01:01:35.106Z,65.51
2018-09-11T01:02:35.572Z,65.62
2018-09-11T01:03:36.044Z,66.16
2018-09-11T01:04:36.511Z,65.32
2018-09-11T01:05:36.982Z,66.37
2018-09-11T01:06:37.452Z,66.44
2018-09-11T01:07:37.922Z,66.50
2018-09-11T01:08:38.392Z,66.81
2018-09-11T01:09:38.861Z,66.42
2018-09-11T01:10:39.336Z,66.84
2018-09-11T01:11:39.806Z,67.05
2018-09-11T01:12:40.276Z,67.61
2018-09-11T01:13:40.758Z,68.32
2018-09-11T01:14:41.214Z,68.16
2018-09-11T01:15:41.684Z,68.94
2018-09-11T01:16:42.155Z,69.56
2018-09-11T01:17:42.626Z,69.88
2018-09-11T01:18:43.097Z,69.95
2018-09-11T01:19:43.567Z,69.80
2018-09-11T01:20:44.038Z,69.58
2018-09-11T01:21:44.508Z,69.43
2018-09-11T01:22:44.981Z,69.69
2018-09-11T01:23:45.452Z,70.17
2018-09-11T01:24:45.924Z,70.55
2018-09-11T01:25:46.394Z,70.53
2018-09-11T01:26:46.867Z,70.81
2018-09-11T01:27:47.339Z,71.33
2018-09-11T01:28:47.812Z,71.32
2018-09-11T01:29:48.283Z,71.04
2018-09-11T01:30:48.756Z,71.20
2018-09-11T01:31:49.231Z,71.71
2018-09-11T01:32:49.702Z,71.75
2018-09-11T01:33:50.176Z,71.25
2018-09-11T01:34:50.649Z,71.33
2018-09-11T01:35:51.119Z,71.94
2018-09-11T01:36:51.593Z,72.40
2018-09-11T01:37:52.069Z,71.99
2018-09-11T01:38:52.540Z,72.07
2018-09-11T01:39:53.016Z,72.07
2018-09-11T01:40:53.494Z,72.38
2018-09-11T01:41:53.961Z,73.52
2018-09-11T01:42:54.439Z,72.30
2018-09-11T01:43:54.913Z,72.53
2018-09-11T01:44:55.386Z,72.58
2018-09-11T01:45:55.860Z,73.19
2018-09-11T01:46:56.332Z,72.73
2018-09-11T01:47:56.807Z,72.83
2018-09-11T01:48:57.279Z,74.92
2018-09-11T01:49:57.753Z,74.12
2018-09-11T01:50:58.227Z,74.17
2018-09-11T01:51:58.702Z,74.80
2018-09-11T01:52:59.171Z,75.91
2018-09-11T01:53:59.648Z,77.48
2018-09-11T01:55:00.120Z,76.95
2018-09-11T01:56:00.591Z,76.65
2018-09-11T01:57:01.063Z,74.56
2018-09-11T01:58:01.537Z,72.72
2018-09-11T01:59:02.008Z,75.58
2018-09-11T02:00:02.484Z,76.73
2018-09-11T02:01:02.953Z,77.45
2018-09-11T02:02:03.478Z,75.83
2018-09-11T02:03:03.897Z,76.08
2018-09-11T02:04:04.369Z,76.65
2018-09-11T02:05:04.838Z,76.55
2018-09-11T02:06:05.310Z,77.96
2018-09-11T02:07:05.781Z,74.78
2018-09-11T02:08:06.254Z,73.27
2018-09-11T02:09:06.720Z,73.48
2018-09-11T02:10:07.192Z,64.15
2018-09-11T02:11:07.666Z,61.27
2018-09-11T02:12:08.132Z,65.33
2018-09-11T02:13:08.603Z,56.00
2018-09-11T02:14:09.073Z,50.58
2018-09-11T02:15:09.544Z,47.92
2018-09-11T02:16:10.019Z,47.84
2018-09-11T02:17:10.486Z,48.63
2018-09-11T02:18:10.956Z,51.67
2018-09-11T02:19:11.425Z,51.39
2018-09-11T02:20:11.894Z,59.48
2018-09-11T02:21:12.364Z,59.19
2018-09-11T02:22:12.840Z,48.55
2018-09-11T02:23:13.306Z,46.04
2018-09-11T02:24:13.776Z,45.16
2018-09-11T02:25:14.245Z,44.01
2018-09-11T02:26:14.716Z,42.96
2018-09-11T02:27:15.187Z,43.21
2018-09-11T02:28:15.658Z,43.84
2018-09-11T02:29:16.129Z,44.22
2018-09-11T02:30:16.602Z,44.28
2018-09-11T02:31:17.075Z,44.10
2018-09-11T02:32:17.546Z,44.10
2018-09-11T02:33:18.015Z,44.13
2018-09-11T02:34:18.487Z,44.29
2018-09-11T02:35:18.959Z,44.75
2018-09-11T02:36:19.430Z,44.91
2018-09-11T02:37:19.903Z,44.48
2018-09-11T02:38:20.389Z,45.22
2018-09-11T02:39:20.857Z,45.10
2018-09-11T02:40:21.321Z,45.41
2018-09-11T02:41:21.791Z,45.84
2018-09-11T02:42:22.268Z,45.93
2018-09-11T02:43:22.740Z,45.78
2018-09-11T02:44:23.213Z,45.04
2018-09-11T02:45:23.686Z,45.50
2018-09-11T02:46:24.156Z,44.47
2018-09-11T02:47:24.631Z,42.98
2018-09-11T02:48:25.106Z,43.32
2018-09-11T02:49:25.576Z,42.11
2018-09-11T02:50:26.054Z,43.24
2018-09-11T02:51:26.525Z,43.11
2018-09-11T02:52:27.000Z,42.93
2018-09-11T02:53:27.473Z,42.39
2018-09-11T02:54:27.946Z,43.34
2018-09-11T02:55:28.420Z,44.15
2018-09-11T02:56:28.897Z,44.52
2018-09-11T02:57:29.365Z,45.14
2018-09-11T02:58:29.841Z,44.96
2018-09-11T02:59:30.313Z,45.36
2018-09-11T03:00:30.789Z,45.98
2018-09-11T03:01:31.262Z,46.65
2018-09-11T03:02:31.733Z,46.95
2018-09-11T03:03:32.205Z,47.19
2018-09-11T03:04:32.679Z,47.50
2018-09-11T03:05:33.149Z,48.40
2018-09-11T03:06:33.622Z,48.91
2018-09-11T03:07:34.094Z,49.02
2018-09-11T03:08:34.566Z,48.75
2018-09-11T03:09:35.039Z,48.66
2018-09-11T03:10:35.509Z,48.66
2018-09-11T03:11:35.980Z,49.15
2018-09-11T03:12:36.454Z,49.27
2018-09-11T03:13:36.924Z,49.66
2018-09-11T03:14:37.394Z,49.57
2018-09-11T03:15:37.866Z,49.84
2018-09-11T03:16:38.334Z,49.84
2018-09-11T03:17:38.805Z,50.14
2018-09-11T03:18:39.279Z,50.25
2018-09-11T03:19:39.753Z,50.25
2018-09-11T03:20:40.218Z,50.73
2018-09-11T03:21:40.686Z,50.78
2018-09-11T03:22:41.157Z,50.61
2018-09-11T03:23:41.628Z,50.64
2018-09-11T03:24:42.315Z,50.99
2018-09-11T03:25:42.565Z,51.07
2018-09-11T03:26:43.039Z,51.13
2018-09-11T03:27:43.506Z,50.87
2018-09-11T03:28:43.976Z,51.08
2018-09-11T03:29:44.449Z,51.44
2018-09-11T03:30:44.917Z,51.84
2018-09-11T03:31:45.432Z,52.20
2018-09-11T03:32:45.859Z,52.46
2018-09-11T03:33:46.331Z,52.60
2018-09-11T03:34:46.799Z,52.96
2018-09-11T03:35:47.272Z,52.92
2018-09-11T03:36:47.744Z,53.25
2018-09-11T03:37:48.215Z,53.86
2018-09-11T03:38:48.684Z,54.09
2018-09-11T03:39:49.158Z,54.21
2018-09-11T03:40:49.628Z,53.95
2018-09-11T03:41:50.098Z,54.11
2018-09-11T03:42:50.571Z,54.02
2018-09-11T03:43:51.043Z,54.25
2018-09-11T03:44:51.517Z,54.62
2018-09-11T03:45:51.986Z,54.71
2018-09-11T03:46:52.461Z,54.92
2018-09-11T03:47:52.932Z,54.86
2018-09-11T03:48:53.405Z,54.71
2018-09-11T03:49:53.877Z,54.89
2018-09-11T03:50:54.350Z,55.20
2018-09-11T03:51:54.822Z,54.79
2018-09-11T03:52:55.296Z,54.77
2018-09-11T03:53:55.770Z,54.66
2018-09-11T03:54:56.242Z,54.78
2018-09-11T03:55:56.716Z,55.47
2018-09-11T03:56:57.190Z,55.79
2018-09-11T03:57:57.664Z,55.92
2018-09-11T03:58:58.139Z,55.72
2018-09-11T03:59:58.610Z,55.98
2018-09-11T04:00:59.089Z,56.04
2018-09-11T04:01:59.558Z,55.87
2018-09-11T04:03:00.030Z,56.05
2018-09-11T04:04:00.506Z,56.39
2018-09-11T04:05:00.981Z,56.67
2018-09-11T04:06:01.454Z,56.87
2018-09-11T04:07:01.926Z,57.13
2018-09-11T04:08:02.398Z,57.30
2018-09-11T04:09:02.871Z,57.44
2018-09-11T04:10:03.347Z,57.22
2018-09-11T04:11:03.817Z,57.11
2018-09-11T04:12:04.293Z,57.09
2018-09-11T04:13:04.763Z,57.57
2018-09-11T04:14:05.235Z,57.54
2018-09-11T04:15:05.706Z,57.67
2018-09-11T04:16:06.178Z,57.56
2018-09-11T04:17:06.651Z,57.85
2018-09-11T04:18:07.124Z,57.96
2018-09-11T04:19:07.594Z,58.22
2018-09-11T04:20:08.066Z,57.94
2018-09-11T04:21:08.539Z,58.11
2018-09-11T04:22:09.005Z,57.77
2018-09-11T04:23:09.478Z,57.89
2018-09-11T04:24:09.950Z,58.08
2018-09-11T04:25:10.422Z,58.00
2018-09-11T04:26:10.889Z,58.22
2018-09-11T04:27:11.360Z,58.42
2018-09-11T04:28:11.830Z,58.75
2018-09-11T04:29:12.303Z,58.97
2018-09-11T04:30:12.769Z,58.89
2018-09-11T04:31:13.241Z,58.86
2018-09-11T04:32:13.711Z,59.14
2018-09-11T04:33:14.178Z,59.10
2018-09-11T04:34:14.650Z,59.27
2018-09-11T04:35:15.123Z,59.46
2018-09-11T04:36:15.639Z,59.48
2018-09-11T04:37:16.060Z,59.12
2018-09-11T04:38:16.531Z,59.24
2018-09-11T04:39:17.000Z,59.32
2018-09-11T04:40:17.471Z,59.60
2018-09-11T04:41:17.942Z,59.88
2018-09-11T04:42:18.410Z,59.82
2018-09-11T04:43:18.880Z,59.80
2018-09-11T04:44:19.354Z,59.77
2018-09-11T04:45:19.824Z,59.68
2018-09-11T04:46:20.296Z,59.63
2018-09-11T04:47:20.765Z,59.37
2018-09-11T04:48:21.236Z,59.54
2018-09-11T04:49:21.706Z,59.49
2018-09-11T04:50:22.179Z,59.46
2018-09-11T04:51:22.649Z,59.49
2018-09-11T04:52:23.121Z,59.35
2018-09-11T04:53:23.596Z,59.74
2018-09-11T04:54:24.066Z,60.01
2018-09-11T04:55:24.540Z,60.32
2018-09-11T04:56:25.009Z,60.32
2018-09-11T04:57:25.480Z,59.92
2018-09-11T04:58:25.952Z,59.61
2018-09-11T04:59:26.425Z,59.39
2018-09-11T05:00:26.907Z,59.48
2018-09-11T05:01:27.372Z,59.68
2018-09-11T05:02:27.844Z,59.65
2018-09-11T05:03:28.317Z,59.48
2018-09-11T05:04:28.792Z,59.37
2018-09-11T05:05:29.286Z,59.25
2018-09-11T05:06:29.737Z,59.31
2018-09-11T05:07:30.213Z,59.76
2018-09-11T05:08:30.737Z,59.70
2018-09-11T05:09:31.159Z,59.46
2018-09-11T05:10:31.633Z,59.48
2018-09-11T05:11:32.109Z,59.57
2018-09-11T05:12:32.580Z,59.48
2018-09-11T05:13:33.055Z,59.65
2018-09-11T05:14:33.527Z,59.82
2018-09-11T05:15:34.002Z,59.96
2018-09-11T05:16:34.473Z,59.65
2018-09-11T05:17:34.949Z,59.90
2018-09-11T05:18:35.421Z,59.87
2018-09-11T05:19:35.891Z,60.10
2018-09-11T05:20:36.365Z,60.05
2018-09-11T05:21:36.840Z,60.02
2018-09-11T05:22:37.311Z,60.18
2018-09-11T05:23:37.784Z,60.16
2018-09-11T05:24:38.255Z,59.77
2018-09-11T05:25:38.731Z,60.19
2018-09-11T05:26:39.198Z,60.10
2018-09-11T05:27:39.671Z,59.90
2018-09-11T05:28:40.144Z,59.94
2018-09-11T05:29:40.616Z,59.82
2018-09-11T05:30:41.085Z,59.65
2018-09-11T05:31:41.556Z,60.01
2018-09-11T05:32:42.028Z,60.24
2018-09-11T05:33:42.555Z,60.41
2018-09-11T05:34:42.967Z,60.64
2018-09-11T05:35:43.438Z,60.72
2018-09-11T05:36:43.912Z,60.95
2018-09-11T05:37:44.379Z,60.14
2018-09-11T05:38:44.849Z,60.96
2018-09-11T05:39:45.320Z,61.43
2018-09-11T05:40:45.789Z,61.26
2018-09-11T05:41:46.261Z,61.59
2018-09-11T05:42:46.729Z,61.84
2018-09-11T05:43:47.202Z,61.62
2018-09-11T05:44:47.670Z,61.51
2018-09-11T05:45:48.143Z,62.01
2018-09-11T05:46:48.610Z,61.98
2018-09-11T05:47:49.083Z,62.18
2018-09-11T05:48:49.554Z,62.29
2018-09-11T05:49:50.025Z,62.18
2018-09-11T05:50:50.495Z,62.15
2018-09-11T05:51:50.966Z,62.18
2018-09-11T05:52:51.437Z,62.26
2018-09-11T05:53:51.908Z,62.09
2018-09-11T05:54:52.379Z,62.15
2018-09-11T05:55:52.849Z,62.16
2018-09-11T05:56:53.321Z,62.01
2018-09-11T05:57:53.793Z,62.09
2018-09-11T05:58:54.264Z,62.48
2018-09-11T05:59:54.736Z,62.18
2018-09-11T06:00:55.212Z,62.26
2018-09-11T06:01:55.680Z,62.40
2018-09-11T06:02:56.153Z,62.84
2018-09-11T06:03:56.626Z,62.84
2018-09-11T06:04:57.100Z,62.95
2018-09-11T06:05:57.571Z,63.00
2018-09-11T06:06:58.042Z,62.97
2018-09-11T06:07:58.517Z,62.83
2018-09-11T06:08:58.991Z,62.81
2018-09-11T06:09:59.462Z,62.75
2018-09-11T06:10:59.940Z,62.81
2018-09-11T06:12:00.411Z,62.95
2018-09-11T06:13:00.884Z,62.70
2018-09-11T06:14:01.361Z,62.79
2018-09-11T06:15:01.831Z,62.74
2018-09-11T06:16:02.322Z,62.93
2018-09-11T06:17:02.779Z,62.96
2018-09-11T06:18:03.254Z,62.79
2018-09-11T06:19:03.782Z,62.82
2018-09-11T06:20:04.204Z,62.80
2018-09-11T06:21:04.679Z,62.85
2018-09-11T06:22:05.152Z,62.79
2018-09-11T06:23:05.624Z,62.74
2018-09-11T06:24:06.097Z,62.77
2018-09-11T06:25:06.572Z,62.71
2018-09-11T06:26:07.046Z,62.77
2018-09-11T06:27:07.520Z,62.79
2018-09-11T06:28:07.991Z,62.71
2018-09-11T06:29:08.477Z,62.30
2018-09-11T06:30:08.938Z,62.51
2018-09-11T06:31:09.409Z,62.79
2018-09-11T06:32:09.884Z,62.90
2018-09-11T06:33:10.358Z,63.09
2018-09-11T06:34:10.829Z,63.18
2018-09-11T06:35:11.301Z,62.80
2018-09-11T06:36:11.774Z,62.60
2018-09-11T06:37:12.247Z,62.49
2018-09-11T06:38:12.719Z,62.83
2018-09-11T06:39:13.193Z,62.50
2018-09-11T06:40:13.660Z,61.86
2018-09-11T06:41:14.158Z,61.89
2018-09-11T06:42:14.604Z,62.03
2018-09-11T06:43:15.074Z,62.25
2018-09-11T06:44:15.545Z,62.28
2018-09-11T06:45:16.018Z,62.61
2018-09-11T06:46:16.487Z,62.90
2018-09-11T06:47:16.957Z,62.92
2018-09-11T06:48:17.427Z,63.06
2018-09-11T06:49:17.908Z,63.06
2018-09-11T06:50:18.370Z,63.36
2018-09-11T06:51:18.842Z,63.28
2018-09-11T06:52:19.312Z,63.11
2018-09-11T06:53:19.781Z,62.59
2018-09-11T06:54:20.254Z,62.81
2018-09-11T06:55:20.724Z,63.06
2018-09-11T06:56:21.195Z,62.90
2018-09-11T06:57:21.666Z,62.65
2018-09-11T06:58:22.135Z,62.79
2018-09-11T06:59:22.607Z,62.93
2018-09-11T07:00:23.078Z,62.55
2018-09-11T07:01:23.548Z,62.66
2018-09-11T07:02:24.021Z,63.04
2018-09-11T07:03:24.491Z,62.43
2018-09-11T07:04:24.963Z,62.46
2018-09-11T07:05:25.437Z,63.21
2018-09-11T07:06:25.909Z,63.33
2018-09-11T07:07:26.383Z,63.27
2018-09-11T07:08:26.872Z,63.16
2018-09-11T07:09:27.328Z,63.46
2018-09-11T07:10:27.797Z,63.49
2018-09-11T07:12:28.742Z,63.43
2018-09-11T07:13:29.218Z,63.51
2018-09-11T07:14:29.758Z,63.32
2018-09-11T07:15:30.164Z,63.21
2018-09-11T07:16:30.638Z,63.54
2018-09-11T07:17:31.111Z,63.67
2018-09-11T07:18:31.586Z,63.46
2018-09-11T07:19:32.143Z,63.26
2018-09-11T07:20:32.568Z,62.63
2018-09-11T07:21:33.008Z,62.83
2018-09-11T07:22:33.493Z,62.83
2018-09-11T07:23:33.960Z,61.43
2018-09-11T07:24:34.432Z,62.10
2018-09-11T07:25:34.907Z,61.39
2018-09-11T07:26:35.383Z,61.31
2018-09-11T07:27:35.860Z,60.82
2018-09-11T07:28:36.331Z,61.41
2018-09-11T07:29:36.811Z,61.92
2018-09-11T07:30:37.283Z,61.67
2018-09-11T07:31:37.755Z,62.09
2018-09-11T07:32:38.230Z,62.43
2018-09-11T07:33:38.704Z,62.23
2018-09-11T07:34:39.179Z,62.17
2018-09-11T07:35:39.652Z,62.09
2018-09-11T07:36:40.134Z,62.27
2018-09-11T07:37:40.608Z,62.29
2018-09-11T07:38:41.074Z,62.85
2018-09-11T07:39:41.549Z,63.37
2018-09-11T07:40:42.057Z,63.40
2018-09-11T07:41:42.495Z,63.57
2018-09-11T07:42:42.971Z,63.38
2018-09-11T07:43:43.442Z,63.60
2018-09-11T07:44:43.925Z,63.74
2018-09-11T07:45:44.387Z,60.98
2018-09-11T07:46:44.860Z,52.48
2018-09-11T07:47:45.334Z,43.07
2018-09-11T07:48:45.805Z,38.55
2018-09-11T07:49:46.277Z,34.30
2018-09-11T07:50:46.750Z,32.65
2018-09-11T07:51:47.222Z,31.87
2018-09-11T07:52:47.718Z,32.47
2018-09-11T07:53:48.167Z,28.77
2018-09-11T07:54:48.641Z,29.59
2018-09-11T07:55:49.114Z,28.65
2018-09-11T07:56:49.586Z,28.58
2018-09-11T07:57:50.059Z,28.58
2018-09-11T07:58:50.532Z,28.17
2018-09-11T07:59:51.004Z,26.39
2018-09-11T08:00:51.475Z,26.19
2018-09-11T08:01:51.951Z,24.60
2018-09-11T08:02:52.423Z,23.63
2018-09-11T08:03:52.896Z,23.35
2018-09-11T08:04:53.368Z,22.94
2018-09-11T08:05:53.839Z,22.87
2018-09-11T08:06:54.313Z,23.01
2018-09-11T08:07:54.784Z,22.38
2018-09-11T08:08:55.259Z,22.17
2018-09-11T08:09:55.733Z,22.24
2018-09-11T08:10:56.210Z,21.93
2018-09-11T08:11:56.722Z,21.87
2018-09-11T08:12:57.157Z,21.76
2018-09-11T08:13:57.635Z,21.69
2018-09-11T08:14:58.108Z,21.76
2018-09-11T08:15:58.583Z,21.48
2018-09-11T08:16:59.061Z,21.41
2018-09-11T08:17:59.541Z,21.55
2018-09-11T08:19:00.019Z,21.55
2018-09-11T08:20:00.571Z,21.69
2018-09-11T08:21:00.978Z,21.76
2018-09-11T08:22:01.452Z,21.62
2018-09-11T08:23:01.931Z,21.62
2018-09-11T08:24:02.411Z,22.18
2018-09-11T08:25:02.894Z,21.90
2018-09-11T08:26:03.373Z,21.97
2018-09-11T08:27:03.853Z,21.83
2018-09-11T08:28:04.333Z,21.66
2018-09-11T08:29:04.813Z,21.34
2018-09-11T08:30:05.295Z,21.20
2018-09-11T08:31:05.773Z,21.06
2018-09-11T08:32:06.254Z,21.34
2018-09-11T08:33:06.735Z,21.76
2018-09-11T08:34:07.215Z,22.22
2018-09-11T08:35:07.696Z,22.63
2018-09-11T08:36:08.174Z,22.43
2018-09-11T08:37:08.653Z,22.12
2018-09-11T08:38:09.136Z,22.26
2018-09-11T08:39:09.616Z,22.29
2018-09-11T08:40:10.095Z,21.94
2018-09-11T08:41:10.639Z,21.84
2018-09-11T08:42:11.053Z,21.64
2018-09-11T08:43:11.530Z,21.37
2018-09-11T08:44:12.008Z,21.30
2018-09-11T08:45:12.486Z,21.79
2018-09-11T08:46:12.963Z,21.83
2018-09-11T08:47:13.442Z,22.23
2018-09-11T08:48:13.917Z,22.59
2018-09-11T08:49:14.397Z,21.57
2018-09-11T08:50:14.873Z,24.04
2018-09-11T08:51:15.351Z,23.87
2018-09-11T08:52:15.889Z,24.57
2018-09-11T08:53:16.306Z,21.87
2018-09-11T08:54:16.781Z,21.68
2018-09-11T08:55:17.257Z,21.32
2018-09-11T08:56:17.732Z,21.24
2018-09-11T08:57:18.207Z,21.44
2018-09-11T08:58:18.683Z,22.84
2018-09-11T08:59:19.161Z,22.85
2018-09-11T09:00:19.635Z,22.22
2018-09-11T09:01:20.111Z,22.67
2018-09-11T09:02:20.587Z,24.81
2018-09-11T09:03:21.059Z,23.35
2018-09-11T09:04:21.533Z,23.91
2018-09-11T09:05:22.011Z,24.94
2018-09-11T09:06:22.482Z,27.02
2018-09-11T09:07:22.959Z,24.40
2018-09-11T09:08:23.432Z,23.77
2018-09-11T09:09:23.904Z,24.05
2018-09-11T09:10:24.383Z,23.77
2018-09-11T09:11:24.852Z,24.35
2018-09-11T09:12:25.333Z,25.01
2018-09-11T09:13:25.800Z,25.00
2018-09-11T09:14:26.279Z,25.00
2018-09-11T09:15:26.797Z,26.32
2018-09-11T09:16:27.221Z,26.87
2018-09-11T09:17:27.694Z,25.77
2018-09-11T09:18:28.168Z,26.00
2018-09-11T09:19:28.640Z,25.86
2018-09-11T09:20:29.114Z,27.33
2018-09-11T09:21:29.588Z,28.40
2018-09-11T09:22:30.061Z,27.03
2018-09-11T09:23:30.532Z,26.31
2018-09-11T09:24:31.005Z,28.03
2018-09-11T09:25:31.478Z,29.13
2018-09-11T09:26:31.951Z,28.25
2018-09-11T09:27:32.452Z,27.22
2018-09-11T09:28:32.896Z,26.95
2018-09-11T09:29:33.369Z,26.61
2018-09-11T09:30:33.843Z,25.23
2018-09-11T09:31:34.315Z,29.84
2018-09-11T09:32:34.786Z,34.96
2018-09-11T09:33:35.258Z,29.27
2018-09-11T09:34:35.732Z,26.77
2018-09-11T09:35:36.204Z,27.26
2018-09-11T09:36:36.713Z,26.95
2018-09-11T09:37:37.148Z,25.92
2018-09-11T09:38:37.620Z,25.36
2018-09-11T09:39:38.096Z,26.88
2018-09-11T09:40:38.563Z,23.76
2018-09-11T09:41:39.037Z,26.32
2018-09-11T09:42:39.513Z,28.66
2018-09-11T09:43:39.980Z,29.90
2018-09-11T09:44:40.452Z,23.62
2018-09-11T09:45:40.925Z,23.76
2018-09-11T09:46:41.399Z,23.01
2018-09-11T09:47:41.870Z,22.36
2018-09-11T09:48:42.358Z,22.46
2018-09-11T09:49:42.859Z,23.15
2018-09-11T09:50:43.357Z,22.96
2018-09-11T09:51:43.755Z,22.64
2018-09-11T09:52:44.228Z,22.36
2018-09-11T09:53:44.698Z,24.04
2018-09-11T09:54:45.170Z,25.14
2018-09-11T09:55:45.643Z,26.73
2018-09-11T09:56:46.114Z,25.86
2018-09-11T09:57:46.586Z,24.54
2018-09-11T09:58:47.057Z,23.81
2018-09-11T09:59:47.528Z,22.76
2018-09-11T10:00:48.001Z,22.14
2018-09-11T10:01:48.473Z,24.17
2018-09-11T10:02:48.943Z,23.12
2018-09-11T10:03:49.414Z,23.53
2018-09-11T10:04:49.895Z,22.49
2018-09-11T10:05:50.357Z,21.44
2018-09-11T10:06:50.832Z,20.80
2018-09-11T10:07:51.300Z,21.51
2018-09-11T10:08:51.770Z,20.74
2018-09-11T10:09:52.239Z,21.31
2018-09-11T10:10:52.714Z,20.67
2018-09-11T10:11:53.227Z,20.68
2018-09-11T10:12:53.652Z,21.39
2018-09-11T10:13:54.123Z,22.18
2018-09-11T10:14:54.597Z,21.30
2018-09-11T10:15:55.067Z,20.13
2018-09-11T10:16:55.537Z,19.70
2018-09-11T10:17:56.005Z,20.20
2018-09-11T10:18:56.477Z,20.38
2018-09-11T10:19:56.952Z,20.42
2018-09-11T10:20:57.418Z,19.63
2018-09-11T10:21:57.889Z,19.42
2018-09-11T10:22:58.361Z,19.13
2018-09-11T10:23:58.834Z,19.83
2018-09-11T10:24:59.303Z,19.27
2018-09-11T10:25:59.776Z,19.63
2018-09-11T10:27:00.247Z,20.66
2018-09-11T10:28:00.721Z,19.32
2018-09-11T10:29:01.195Z,19.64
2018-09-11T10:30:01.667Z,19.51
2018-09-11T10:31:02.141Z,18.51
2018-09-11T10:32:02.610Z,18.58
2018-09-11T10:33:03.083Z,19.64
2018-09-11T10:34:03.557Z,20.29
2018-09-11T10:35:04.029Z,20.22
2018-09-11T10:36:04.502Z,21.39
2018-09-11T10:37:04.977Z,20.64
2018-09-11T10:38:05.450Z,20.92
2018-09-11T10:39:05.926Z,20.28
2018-09-11T10:40:06.402Z,22.61
2018-09-11T10:41:06.911Z,21.13
2018-09-11T10:42:07.351Z,22.30
2018-09-11T10:43:07.824Z,22.57
2018-09-11T10:44:08.301Z,23.87
2018-09-11T10:45:08.774Z,23.83
2018-09-11T10:46:09.251Z,24.71
2018-09-11T10:47:09.727Z,29.20
2018-09-11T10:48:10.200Z,30.02
2018-09-11T10:49:10.676Z,31.70
2018-09-11T10:50:11.152Z,29.53
2018-09-11T10:51:11.629Z,27.20
2018-09-11T10:52:12.105Z,28.55
2018-09-11T10:53:12.575Z,27.56
2018-09-11T10:54:13.053Z,29.00
2018-09-11T10:55:13.528Z,29.50
2018-09-11T10:56:14.003Z,31.16
2018-09-11T10:57:14.482Z,29.04
2018-09-11T10:58:14.956Z,34.89
2018-09-11T10:59:15.429Z,24.30
2018-09-11T11:00:15.969Z,30.63
2018-09-11T11:01:16.379Z,30.83
2018-09-11T11:02:16.855Z,28.46
2018-09-11T11:03:17.332Z,30.02
2018-09-11T11:04:17.805Z,33.65
2018-09-11T11:05:18.278Z,27.83
2018-09-11T11:06:18.755Z,29.13
2018-09-11T11:07:19.230Z,29.61
2018-09-11T11:08:19.704Z,31.21
2018-09-11T11:09:20.177Z,29.72
2018-09-11T11:10:20.655Z,29.62
2018-09-11T11:11:21.133Z,28.53
2018-09-11T11:12:21.601Z,32.18
2018-09-11T11:13:22.077Z,28.10
2018-09-11T11:14:22.547Z,30.97
2018-09-11T11:15:23.023Z,32.02
2018-09-11T11:16:23.498Z,34.66
2018-09-11T11:17:23.973Z,33.13
2018-09-11T11:18:24.446Z,34.30
2018-09-11T11:19:24.920Z,29.48
2018-09-11T11:20:25.396Z,32.16
2018-09-11T11:21:25.866Z,30.25
2018-09-11T11:22:26.340Z,28.34
2018-09-11T11:23:26.813Z,34.48
2018-09-11T11:24:27.288Z,29.74
2018-09-11T11:25:27.761Z,32.34
2018-09-11T11:26:28.234Z,31.93
2018-09-11T11:27:28.708Z,29.49
2018-09-11T11:28:29.186Z,28.73
2018-09-11T11:29:29.656Z,31.39
2018-09-11T11:30:30.128Z,32.26
2018-09-11T11:31:30.602Z,33.87
2018-09-11T11:32:31.078Z,30.82
2018-09-11T11:33:31.550Z,31.16
2018-09-11T11:34:32.021Z,28.46
2018-09-11T11:35:32.494Z,27.57
2018-09-11T11:36:33.013Z,30.71
2018-09-11T11:37:33.441Z,29.61
2018-09-11T11:38:33.913Z,29.60
2018-09-11T11:39:34.385Z,30.21
2018-09-11T11:40:34.861Z,30.01
2018-09-11T11:41:35.365Z,29.47
2018-09-11T11:42:35.859Z,29.68
2018-09-11T11:43:36.279Z,30.84
2018-09-11T11:44:36.751Z,30.44
2018-09-11T11:45:37.226Z,30.85
2018-09-11T11:46:37.698Z,31.58
2018-09-11T11:47:38.174Z,32.49
2018-09-11T11:48:38.645Z,33.19
2018-09-11T11:49:39.117Z,34.32
2018-09-11T11:50:39.593Z,32.95
2018-09-11T11:51:40.065Z,35.17
2018-09-11T11:52:40.535Z,34.28
2018-09-11T11:53:41.009Z,33.14
2018-09-11T11:54:41.511Z,32.12
2018-09-11T11:55:41.953Z,33.76
2018-09-11T11:56:42.428Z,32.87
2018-09-11T11:57:42.897Z,34.47
2018-09-11T11:58:43.369Z,34.77
2018-09-11T11:59:43.843Z,34.47
2018-09-11T12:00:44.316Z,34.40
2018-09-11T12:01:44.787Z,37.38
2018-09-11T12:02:45.260Z,38.75
2018-09-11T12:03:45.735Z,45.77
2018-09-11T12:04:46.206Z,40.60
2018-09-11T12:05:46.683Z,40.96
2018-09-11T12:06:47.151Z,34.52
2018-09-11T12:07:47.685Z,35.18
2018-09-11T12:08:48.096Z,35.81
2018-09-11T12:09:48.568Z,34.58
2018-09-11T12:10:49.039Z,34.35
2018-09-11T12:11:49.520Z,34.72
2018-09-11T12:12:49.985Z,34.71
2018-09-11T12:13:50.458Z,32.57
2018-09-11T12:14:50.929Z,34.14
2018-09-11T12:15:51.402Z,33.92
2018-09-11T12:16:51.903Z,36.50
2018-09-11T12:17:52.351Z,40.42
2018-09-11T12:18:52.819Z,39.21
2018-09-11T12:19:53.291Z,38.27
2018-09-11T12:20:53.768Z,37.69
2018-09-11T12:21:54.237Z,38.24
2018-09-11T12:22:54.709Z,37.19
2018-09-11T12:23:55.184Z,36.80
2018-09-11T12:24:55.655Z,33.57
2018-09-11T12:25:56.128Z,34.38
2018-09-11T12:26:56.600Z,35.63
2018-09-11T12:27:57.072Z,36.20
2018-09-11T12:28:57.545Z,36.80
2018-09-11T12:29:58.017Z,38.36
2018-09-11T12:30:58.494Z,38.88
2018-09-11T12:31:58.961Z,39.63
2018-09-11T12:32:59.434Z,39.08
2018-09-11T12:33:59.905Z,38.76
2018-09-11T12:35:00.387Z,37.32
2018-09-11T12:36:00.851Z,36.23
2018-09-11T12:37:01.325Z,38.06
2018-09-11T12:38:01.878Z,38.64
2018-09-11T12:39:02.267Z,37.76
2018-09-11T12:40:02.741Z,34.31
2018-09-11T12:41:03.216Z,33.20
2018-09-11T12:42:03.684Z,29.75
2018-09-11T12:43:04.157Z,31.66
2018-09-11T12:44:04.630Z,34.82
2018-09-11T12:45:05.102Z,35.40
2018-09-11T12:46:05.773Z,38.83
2018-09-11T12:47:06.259Z,38.62
2018-09-11T12:48:06.886Z,37.53
2018-09-11T12:49:06.992Z,38.54
2018-09-11T12:50:07.466Z,40.06
2018-09-11T12:51:07.935Z,38.27
2018-09-11T12:52:08.408Z,37.68
2018-09-11T12:53:08.881Z,39.42
2018-09-11T12:54:09.354Z,40.08
2018-09-11T12:55:09.829Z,39.90
2018-09-11T12:56:10.298Z,41.81
2018-09-11T12:57:10.770Z,42.60
2018-09-11T12:58:11.243Z,42.33
2018-09-11T12:59:11.716Z,42.85